Time;durP1;ratioP1;P1;durP2;ratioP2;P2;SDS_P1;SDS_P2;PMS_P1;PMS_P2;Temp;Humidity;BMP_temperature;BMP_pressure;BME280_temperature;BME280_humidity;BME280_pressure;Samples;Min_cycle;Max_cycle;Signal;HPM_P1;HPM_P2
2022/01/17 00:00:59;;;;;;;81.35;40.30;;;;;;;;;;5058083;28;20033;-82
2022/01/17 00:03:25;;;;;;;81.60;40.72;;;;;;;;;;5067971;28;20037;-82
2022/01/17 00:05:54;;;;;;;86.55;42.08;;;;;;;;;;5035282;28;20056;-82
2022/01/17 00:08:20;;;;;;;87.22;44.75;;;;;;;;;;5063585;28;20037;-82
2022/01/17 00:10:46;;;;;;;93.18;42.42;;;;;;;;;;5067902;28;20041;-81
2022/01/17 00:13:22;;;;;;;97.15;45.78;;;;;;;;;;5067658;28;20047;-81
2022/01/17 00:15:52;;;;;;;84.30;43.17;;;;;;;;;;5070236;28;20044;-82
2022/01/17 00:18:30;;;;;;;92.97;46.22;;;;;;;;;;5050185;28;20407;-82
2022/01/17 00:20:57;;;;;;;90.32;44.60;;;;;;;;;;5048243;28;20060;-82
2022/01/17 00:23:23;;;;;;;101.72;46.50;;;;;;;;;;5071058;28;20028;-82
2022/01/17 00:25:49;;;;;;;92.90;47.22;;;;;;;;;;5075788;28;20064;-82
2022/01/17 00:28:15;;;;;;;105.05;49.42;;;;;;;;;;5056410;28;20041;-82
2022/01/17 00:30:42;;;;;;;100.72;48.47;;;;;;;;;;5050342;28;20461;-82
2022/01/17 00:33:08;;;;;;;101.18;48.28;;;;;;;;;;5046142;28;20051;-80
2022/01/17 00:35:34;;;;;;;105.75;49.25;;;;;;;;;;5071047;28;20041;-81
2022/01/17 00:38:00;;;;;;;101.53;49.60;;;;;;;;;;5067493;28;20052;-81
2022/01/17 00:40:26;;;;;;;99.40;49.65;;;;;;;;;;5047230;28;20090;-81
2022/01/17 00:42:52;;;;;;;107.10;50.17;;;;;;;;;;5065003;28;20130;-79
2022/01/17 00:45:24;;;;;;;99.47;49.63;;;;;;;;;;5063901;28;20041;-81
2022/01/17 00:47:51;;;;;;;106.57;50.83;;;;;;;;;;5049227;28;20041;-80
2022/01/17 00:50:17;;;;;;;104.18;50.30;;;;;;;;;;5045314;28;20472;-80
2022/01/17 00:52:43;;;;;;;102.43;44.58;;;;;;;;;;5046495;28;20061;-80
2022/01/17 00:55:09;;;;;;;100.43;48.35;;;;;;;;;;5045658;28;20037;-79
2022/01/17 00:57:35;;;;;;;100.50;49.35;;;;;;;;;;5044897;28;20052;-80
2022/01/17 01:00:02;;;;;;;102.78;49.03;;;;;;;;;;5045115;28;20365;-80
2022/01/17 01:02:28;;;;;;;117.28;52.00;;;;;;;;;;5046322;28;20428;-80
2022/01/17 01:04:54;;;;;;;99.43;49.30;;;;;;;;;;5044210;28;20130;-80
2022/01/17 01:07:20;;;;;;;97.90;49.08;;;;;;;;;;5045800;28;20033;-82
2022/01/17 01:10:00;;;;;;;100.15;46.97;;;;;;;;;;5061542;28;20048;-81
2022/01/17 01:12:26;;;;;;;102.95;47.58;;;;;;;;;;5061881;28;20127;-81
2022/01/17 01:14:52;;;;;;;95.90;45.88;;;;;;;;;;5061586;28;20448;-83
2022/01/17 01:17:37;;;;;;;91.15;47.03;;;;;;;;;;5045440;28;20040;-81
2022/01/17 01:20:28;;;;;;;90.88;45.88;;;;;;;;;;5047944;28;20041;-82
2022/01/17 01:28:23;;;;;;;99.93;48.70;;;;;;;;;;5062790;28;20033;-80
2022/01/17 01:30:52;;;;;;;95.32;47.65;;;;;;;;;;5060444;28;20074;-82
2022/01/17 01:36:19;;;;;;;100.88;49.90;;;;;;;;;;5056271;28;20041;-82
2022/01/17 01:38:46;;;;;;;91.53;49.30;;;;;;;;;;5059607;28;20110;-81
2022/01/17 01:41:12;;;;;;;98.38;49.70;;;;;;;;;;5058561;28;20032;-81
2022/01/17 01:43:38;;;;;;;104.45;52.15;;;;;;;;;;5047175;28;20048;-81
2022/01/17 01:46:05;;;;;;;102.53;51.53;;;;;;;;;;5046657;28;20060;-82
2022/01/17 01:48:33;;;;;;;105.85;53.42;;;;;;;;;;5057951;28;20069;-82
2022/01/17 01:50:59;;;;;;;105.18;52.45;;;;;;;;;;5042281;28;20037;-81
2022/01/17 01:53:25;;;;;;;112.25;51.17;;;;;;;;;;5065261;28;20040;-82
2022/01/17 01:55:52;;;;;;;96.35;49.30;;;;;;;;;;5066621;28;20057;-81
2022/01/17 01:58:17;;;;;;;96.80;49.60;;;;;;;;;;5044958;28;20044;-82
2022/01/17 02:00:43;;;;;;;100.10;51.00;;;;;;;;;;5060938;28;20037;-80
2022/01/17 02:03:09;;;;;;;103.25;50.63;;;;;;;;;;5047330;28;20052;-81
2022/01/17 02:05:35;;;;;;;99.78;50.15;;;;;;;;;;5045932;28;20036;-82
2022/01/17 02:08:01;;;;;;;95.53;49.88;;;;;;;;;;5063019;28;20044;-82
2022/01/17 02:10:28;;;;;;;97.25;49.35;;;;;;;;;;5063207;28;20032;-82
2022/01/17 02:12:53;;;;;;;109.40;51.83;;;;;;;;;;5045051;28;20364;-83
2022/01/17 02:15:20;;;;;;;104.68;51.38;;;;;;;;;;5043850;28;20083;-81
2022/01/17 02:17:56;;;;;;;110.20;51.63;;;;;;;;;;5059812;28;20041;-81
2022/01/17 02:20:34;;;;;;;106.93;52.85;;;;;;;;;;5060797;28;20053;-83
2022/01/17 02:23:04;;;;;;;109.15;52.53;;;;;;;;;;5043429;28;20056;-81
2022/01/17 02:25:30;;;;;;;113.10;52.50;;;;;;;;;;5059638;28;20105;-81
2022/01/17 02:27:56;;;;;;;106.10;50.22;;;;;;;;;;5042977;28;20037;-80
2022/01/17 02:30:23;;;;;;;105.82;51.13;;;;;;;;;;5061186;28;20384;-81
2022/01/17 02:32:49;;;;;;;103.35;49.05;;;;;;;;;;5060391;28;20036;-80
2022/01/17 02:35:16;;;;;;;105.93;48.97;;;;;;;;;;5042936;28;20060;-81
2022/01/17 02:37:42;;;;;;;107.88;50.30;;;;;;;;;;5044489;28;20072;-81
2022/01/17 02:40:08;;;;;;;106.00;49.70;;;;;;;;;;5050603;28;20041;-82
2022/01/17 02:42:36;;;;;;;106.40;48.83;;;;;;;;;;5048743;28;20041;-81
2022/01/17 02:45:11;;;;;;;103.50;49.65;;;;;;;;;;5067716;28;20037;-81
2022/01/17 02:47:37;;;;;;;95.88;48.08;;;;;;;;;;5067475;28;20108;-82
2022/01/17 02:50:03;;;;;;;107.97;49.65;;;;;;;;;;5050856;28;20452;-81
2022/01/17 02:52:29;;;;;;;101.65;49.13;;;;;;;;;;5051010;28;20072;-82
2022/01/17 02:54:55;;;;;;;105.35;51.30;;;;;;;;;;5047668;28;20056;-82
2022/01/17 02:57:21;;;;;;;107.32;52.63;;;;;;;;;;5060124;28;20153;-81
2022/01/17 02:59:47;;;;;;;109.82;52.90;;;;;;;;;;5061738;28;20131;-81
2022/01/17 03:02:13;;;;;;;106.18;51.50;;;;;;;;;;5043516;28;20044;-82
2022/01/17 03:04:39;;;;;;;117.75;53.60;;;;;;;;;;5062743;28;20080;-82
2022/01/17 03:07:05;;;;;;;113.97;53.15;;;;;;;;;;5064597;28;20036;-82
2022/01/17 03:09:40;;;;;;;126.00;55.47;;;;;;;;;;5065868;28;20052;-82
2022/01/17 03:12:07;;;;;;;112.45;51.45;;;;;;;;;;5048607;28;20060;-84
2022/01/17 03:14:33;;;;;;;116.43;53.78;;;;;;;;;;5064287;28;20047;-81
2022/01/17 03:16:59;;;;;;;114.38;53.90;;;;;;;;;;5047421;28;20079;-81
2022/01/17 03:19:25;;;;;;;118.72;53.78;;;;;;;;;;5065276;28;20048;-83
2022/01/17 03:21:51;;;;;;;116.93;52.03;;;;;;;;;;5047963;28;20025;-80
2022/01/17 03:24:17;;;;;;;108.85;52.90;;;;;;;;;;5066599;28;20068;-81
2022/01/17 03:26:43;;;;;;;114.25;53.22;;;;;;;;;;5072641;28;20037;-81
2022/01/17 03:29:09;;;;;;;110.10;52.78;;;;;;;;;;5050234;28;20441;-80
2022/01/17 03:31:35;;;;;;;114.97;52.35;;;;;;;;;;5064082;28;20106;-80
2022/01/17 03:34:01;;;;;;;110.68;50.60;;;;;;;;;;5067179;28;20080;-80
2022/01/17 03:36:27;;;;;;;116.85;52.47;;;;;;;;;;5054445;28;20508;-82
2022/01/17 03:38:54;;;;;;;107.30;51.83;;;;;;;;;;5047472;28;20063;-81
2022/01/17 03:41:20;;;;;;;116.43;51.97;;;;;;;;;;5063458;28;20041;-81
2022/01/17 03:43:46;;;;;;;111.15;52.13;;;;;;;;;;5063727;28;20079;-81
2022/01/17 03:46:13;;;;;;;111.93;51.70;;;;;;;;;;5065322;28;20350;-82
2022/01/17 03:48:39;;;;;;;111.50;51.65;;;;;;;;;;5048641;28;20052;-79
2022/01/17 03:51:05;;;;;;;116.93;53.35;;;;;;;;;;5047989;28;20459;-81
2022/01/17 03:53:31;;;;;;;112.35;51.70;;;;;;;;;;5065280;28;20464;-80
2022/01/17 03:55:57;;;;;;;104.50;51.45;;;;;;;;;;5064518;28;20056;-82
2022/01/17 03:58:25;;;;;;;106.40;47.92;;;;;;;;;;5047257;28;20037;-81
2022/01/17 04:00:51;;;;;;;112.30;50.45;;;;;;;;;;5049437;28;20033;-82
2022/01/17 04:03:17;;;;;;;108.32;49.78;;;;;;;;;;5064194;28;20056;-81
2022/01/17 04:05:43;;;;;;;111.15;52.85;;;;;;;;;;5046110;28;20044;-81
2022/01/17 04:08:09;;;;;;;106.00;51.75;;;;;;;;;;5061843;28;20047;-79
2022/01/17 04:10:35;;;;;;;108.45;53.15;;;;;;;;;;5062246;28;20033;-81
2022/01/17 04:13:04;;;;;;;108.85;52.53;;;;;;;;;;5063922;28;20048;-81
2022/01/17 04:15:30;;;;;;;109.50;51.30;;;;;;;;;;5045247;28;20179;-80
2022/01/17 04:17:56;;;;;;;112.03;52.45;;;;;;;;;;5045083;28;20448;-80
2022/01/17 04:20:27;;;;;;;102.82;49.20;;;;;;;;;;5044585;28;20040;-82
2022/01/17 04:22:54;;;;;;;105.45;51.95;;;;;;;;;;5062178;28;20365;-81
2022/01/17 04:25:20;;;;;;;107.15;51.83;;;;;;;;;;5045472;28;20124;-79
2022/01/17 04:27:46;;;;;;;113.53;51.78;;;;;;;;;;5046110;28;20029;-81
2022/01/17 04:30:16;;;;;;;104.25;49.60;;;;;;;;;;5046636;28;20045;-80
2022/01/17 04:32:45;;;;;;;100.75;50.15;;;;;;;;;;5045839;28;20044;-81
2022/01/17 04:35:11;;;;;;;104.80;50.97;;;;;;;;;;5045217;28;20083;-80
2022/01/17 04:37:38;;;;;;;105.07;52.60;;;;;;;;;;5046156;28;20393;-79
2022/01/17 04:40:04;;;;;;;109.05;52.80;;;;;;;;;;5062569;28;20350;-78
2022/01/17 04:42:30;;;;;;;103.65;50.45;;;;;;;;;;5069574;28;20472;-81
2022/01/17 04:45:08;;;;;;;109.72;51.35;;;;;;;;;;5045697;28;20055;-80
2022/01/17 04:47:36;;;;;;;110.43;52.65;;;;;;;;;;5049367;28;20045;-82
2022/01/17 04:50:02;;;;;;;101.88;51.53;;;;;;;;;;5047328;28;20094;-82
2022/01/17 04:52:28;;;;;;;109.53;51.38;;;;;;;;;;5046079;28;20084;-81
2022/01/17 04:54:59;;;;;;;111.35;53.00;;;;;;;;;;5047557;28;20044;-79
2022/01/17 04:57:25;;;;;;;111.55;52.08;;;;;;;;;;5061575;28;20055;-81
2022/01/17 04:59:51;;;;;;;101.28;50.28;;;;;;;;;;5044184;28;20481;-80
2022/01/17 05:02:17;;;;;;;105.28;48.58;;;;;;;;;;5065465;28;20029;-81
2022/01/17 05:04:45;;;;;;;97.45;46.97;;;;;;;;;;5056135;28;20033;-81
2022/01/17 05:07:11;;;;;;;95.20;47.47;;;;;;;;;;5045623;28;20045;-81
2022/01/17 05:09:39;;;;;;;94.95;45.65;;;;;;;;;;5062435;28;20433;-83
2022/01/17 05:12:05;;;;;;;94.00;46.83;;;;;;;;;;5061730;28;20047;-80
2022/01/17 05:14:31;;;;;;;97.40;46.28;;;;;;;;;;5044148;28;20453;-79
2022/01/17 05:17:09;;;;;;;97.22;45.15;;;;;;;;;;5044743;28;20514;-82
2022/01/17 05:19:48;;;;;;;91.82;42.75;;;;;;;;;;5060738;28;20443;-80
2022/01/17 05:22:15;;;;;;;93.25;44.90;;;;;;;;;;5046489;28;20041;-80
2022/01/17 05:24:41;;;;;;;93.32;44.88;;;;;;;;;;5046050;28;20051;-83
2022/01/17 05:27:07;;;;;;;95.47;43.03;;;;;;;;;;5047565;28;20040;-84
2022/01/17 05:29:33;;;;;;;87.53;40.47;;;;;;;;;;5048918;28;20126;-83
2022/01/17 05:31:59;;;;;;;84.78;39.83;;;;;;;;;;5047628;28;20045;-86
2022/01/17 05:34:25;;;;;;;87.00;41.28;;;;;;;;;;5063001;28;20072;-84
2022/01/17 05:36:51;;;;;;;71.50;35.65;;;;;;;;;;5059649;28;20076;-83
2022/01/17 05:39:17;;;;;;;79.50;34.67;;;;;;;;;;5042351;28;20111;-82
2022/01/17 05:41:43;;;;;;;84.47;35.95;;;;;;;;;;5058334;28;20056;-82
2022/01/17 05:44:09;;;;;;;67.35;29.50;;;;;;;;;;5041932;28;20041;-83
2022/01/17 05:46:35;;;;;;;66.68;29.65;;;;;;;;;;5042334;28;20110;-83
2022/01/17 05:49:01;;;;;;;75.07;31.45;;;;;;;;;;5067888;28;20029;-82
2022/01/17 05:51:27;;;;;;;69.05;29.38;;;;;;;;;;5062017;28;20052;-83
2022/01/17 05:53:53;;;;;;;60.60;27.83;;;;;;;;;;5043249;28;20109;-83
2022/01/17 05:56:19;;;;;;;58.58;26.88;;;;;;;;;;5059097;28;20127;-83
2022/01/17 05:58:45;;;;;;;53.95;26.42;;;;;;;;;;5058846;28;20116;-83
2022/01/17 06:01:13;;;;;;;65.07;26.92;;;;;;;;;;5059216;28;20041;-81
2022/01/17 06:03:39;;;;;;;75.30;28.55;;;;;;;;;;5058996;28;20101;-82
2022/01/17 06:06:06;;;;;;;63.08;26.05;;;;;;;;;;5059703;28;20044;-82
2022/01/17 06:08:32;;;;;;;65.10;27.27;;;;;;;;;;5042443;28;20056;-82
2022/01/17 06:10:58;;;;;;;63.45;26.88;;;;;;;;;;5041901;28;20059;-83
2022/01/17 06:13:24;;;;;;;59.55;25.83;;;;;;;;;;5056523;28;20045;-83
2022/01/17 06:15:52;;;;;;;62.63;26.02;;;;;;;;;;5053221;28;20135;-80
2022/01/17 06:18:18;;;;;;;57.25;27.73;;;;;;;;;;5056767;28;20445;-81
2022/01/17 06:20:44;;;;;;;55.88;26.13;;;;;;;;;;5040869;28;20039;-83
2022/01/17 06:23:09;;;;;;;55.60;25.38;;;;;;;;;;5046923;28;20013;-83
2022/01/17 06:25:36;;;;;;;59.70;26.40;;;;;;;;;;5043878;28;20033;-84
2022/01/17 06:28:03;;;;;;;62.17;26.67;;;;;;;;;;5058795;28;20132;-82
2022/01/17 06:30:28;;;;;;;52.40;24.58;;;;;;;;;;5061941;28;20032;-83
2022/01/17 06:32:54;;;;;;;54.25;25.40;;;;;;;;;;5041268;28;20043;-83
2022/01/17 06:35:21;;;;;;;56.50;25.58;;;;;;;;;;5065146;28;20084;-81
2022/01/17 06:37:48;;;;;;;51.38;25.30;;;;;;;;;;5078217;28;20029;-80
2022/01/17 06:40:14;;;;;;;56.90;25.02;;;;;;;;;;5048549;28;20056;-81
2022/01/17 06:42:41;;;;;;;53.28;24.45;;;;;;;;;;5061378;28;20040;-83
2022/01/17 06:45:07;;;;;;;53.33;25.88;;;;;;;;;;5066076;28;20075;-80
2022/01/17 06:47:36;;;;;;;57.35;26.88;;;;;;;;;;5045095;28;20045;-81
2022/01/17 06:50:06;;;;;;;57.80;27.40;;;;;;;;;;5061710;28;20037;-84
2022/01/17 06:52:32;;;;;;;53.65;25.35;;;;;;;;;;5064277;28;20068;-83
2022/01/17 06:54:58;;;;;;;59.40;26.00;;;;;;;;;;5048432;28;20064;-83
2022/01/17 06:57:25;;;;;;;59.35;26.48;;;;;;;;;;5062971;28;20045;-83
2022/01/17 06:59:51;;;;;;;57.28;24.75;;;;;;;;;;5061413;28;20379;-81
2022/01/17 07:02:17;;;;;;;59.17;24.42;;;;;;;;;;5062993;28;20033;-83
2022/01/17 07:04:43;;;;;;;57.97;24.35;;;;;;;;;;5065483;28;20056;-81
2022/01/17 07:07:09;;;;;;;50.00;24.13;;;;;;;;;;5062197;28;20033;-82
2022/01/17 07:09:36;;;;;;;47.90;23.13;;;;;;;;;;5062112;28;20041;-80
2022/01/17 07:12:02;;;;;;;50.40;22.85;;;;;;;;;;5044578;28;20127;-81
2022/01/17 07:14:28;;;;;;;47.42;22.88;;;;;;;;;;5061736;28;20072;-81
2022/01/17 07:16:54;;;;;;;47.97;24.10;;;;;;;;;;5044388;28;20045;-81
2022/01/17 07:19:20;;;;;;;46.92;22.08;;;;;;;;;;5062462;28;20041;-81
2022/01/17 07:21:46;;;;;;;47.33;21.92;;;;;;;;;;5068277;28;20025;-81
2022/01/17 07:24:13;;;;;;;56.10;23.20;;;;;;;;;;5082033;28;20048;-80
2022/01/17 07:26:40;;;;;;;50.25;21.70;;;;;;;;;;5056865;28;20055;-83
2022/01/17 07:29:08;;;;;;;45.45;22.20;;;;;;;;;;5049271;28;20033;-83
2022/01/17 07:31:34;;;;;;;42.63;20.33;;;;;;;;;;5048181;28;20079;-83
2022/01/17 07:34:00;;;;;;;45.75;21.05;;;;;;;;;;5065430;28;20041;-83
2022/01/17 07:36:26;;;;;;;54.63;23.73;;;;;;;;;;5062303;28;20246;-84
2022/01/17 07:38:52;;;;;;;46.33;23.15;;;;;;;;;;5043880;28;20465;-83
2022/01/17 07:41:18;;;;;;;49.25;24.33;;;;;;;;;;5062011;28;20048;-81
2022/01/17 07:43:44;;;;;;;58.28;24.38;;;;;;;;;;5062061;28;20041;-82
2022/01/17 07:46:22;;;;;;;52.20;26.27;;;;;;;;;;5063131;28;20033;-82
2022/01/17 07:49:08;;;;;;;62.22;26.50;;;;;;;;;;5046279;28;20044;-83
2022/01/17 07:51:34;;;;;;;50.45;26.08;;;;;;;;;;5062786;28;20106;-82
2022/01/17 07:54:00;;;;;;;53.55;25.65;;;;;;;;;;5060170;28;20041;-78
2022/01/17 07:56:26;;;;;;;54.40;26.50;;;;;;;;;;5059474;28;20049;-80
2022/01/17 07:58:52;;;;;;;56.40;28.58;;;;;;;;;;5042790;28;20051;-80
2022/01/17 08:01:19;;;;;;;58.83;27.50;;;;;;;;;;5074985;28;20036;-80
2022/01/17 08:03:45;;;;;;;58.58;28.23;;;;;;;;;;5054244;28;20033;-79
2022/01/17 08:06:11;;;;;;;60.30;29.92;;;;;;;;;;5053240;28;20029;-81
2022/01/17 08:08:38;;;;;;;63.38;30.05;;;;;;;;;;5060360;28;20052;-80
2022/01/17 08:11:04;;;;;;;55.33;28.90;;;;;;;;;;5063445;28;20048;-81
2022/01/17 08:13:30;;;;;;;68.13;32.38;;;;;;;;;;5065351;28;20130;-80
2022/01/17 08:15:56;;;;;;;62.40;32.58;;;;;;;;;;5042764;28;20073;-80
2022/01/17 08:18:22;;;;;;;64.57;33.33;;;;;;;;;;5061561;28;20060;-83
2022/01/17 08:20:48;;;;;;;69.07;34.45;;;;;;;;;;5046591;28;20052;-83
2022/01/17 08:23:14;;;;;;;67.22;36.65;;;;;;;;;;5062451;28;20072;-83
2022/01/17 08:25:40;;;;;;;70.57;37.75;;;;;;;;;;5045494;28;20037;-84
2022/01/17 08:28:06;;;;;;;74.22;38.25;;;;;;;;;;5048242;28;20037;-83
2022/01/17 08:30:32;;;;;;;70.45;37.80;;;;;;;;;;5045957;28;20338;-82
2022/01/17 08:32:59;;;;;;;85.55;40.15;;;;;;;;;;5061059;28;20037;-80
2022/01/17 08:35:25;;;;;;;75.90;39.55;;;;;;;;;;5058105;28;20041;-80
2022/01/17 08:37:51;;;;;;;64.97;39.28;;;;;;;;;;5059946;28;20037;-80
2022/01/17 08:40:18;;;;;;;73.43;39.17;;;;;;;;;;5061281;28;20047;-80
2022/01/17 08:42:44;;;;;;;69.68;37.83;;;;;;;;;;5043567;28;20095;-79
2022/01/17 08:45:11;;;;;;;71.35;39.58;;;;;;;;;;5043622;28;20120;-81
2022/01/17 08:47:37;;;;;;;73.82;39.72;;;;;;;;;;5059855;28;20037;-83
2022/01/17 08:50:04;;;;;;;73.20;39.58;;;;;;;;;;5061586;28;20247;-82
2022/01/17 08:52:30;;;;;;;66.30;37.42;;;;;;;;;;5042596;28;20485;-81
2022/01/17 08:54:56;;;;;;;76.97;39.80;;;;;;;;;;5043232;28;20036;-80
2022/01/17 08:57:22;;;;;;;68.25;37.85;;;;;;;;;;5073874;28;20088;-81
2022/01/17 08:59:48;;;;;;;70.65;37.70;;;;;;;;;;5078131;28;20109;-80
2022/01/17 09:02:14;;;;;;;67.65;35.90;;;;;;;;;;5051278;28;20051;-82
2022/01/17 09:04:42;;;;;;;64.88;35.67;;;;;;;;;;5068812;28;20045;-81
2022/01/17 09:07:09;;;;;;;68.38;35.65;;;;;;;;;;5066134;28;20099;-78
2022/01/17 09:09:36;;;;;;;72.15;37.80;;;;;;;;;;5063426;28;20047;-78
2022/01/17 09:12:02;;;;;;;71.13;37.70;;;;;;;;;;5049794;28;20040;-81
2022/01/17 09:14:28;;;;;;;65.80;39.20;;;;;;;;;;5045711;28;20066;-79
2022/01/17 09:16:54;;;;;;;67.50;38.58;;;;;;;;;;5047353;28;20075;-81
2022/01/17 09:19:20;;;;;;;71.43;39.03;;;;;;;;;;5061639;28;20474;-80
2022/01/17 09:21:46;;;;;;;77.97;41.38;;;;;;;;;;5043581;28;20036;-80
2022/01/17 09:24:12;;;;;;;74.22;40.63;;;;;;;;;;5067451;28;20364;-81
2022/01/17 09:26:38;;;;;;;78.28;41.72;;;;;;;;;;5050523;28;20037;-82
2022/01/17 09:29:04;;;;;;;74.72;42.80;;;;;;;;;;5049838;28;20040;-81
2022/01/17 09:31:30;;;;;;;71.90;42.85;;;;;;;;;;5065863;28;20045;-81
2022/01/17 09:33:56;;;;;;;82.35;45.15;;;;;;;;;;5069000;28;20456;-81
2022/01/17 09:36:25;;;;;;;75.50;44.90;;;;;;;;;;5064902;28;20052;-80
2022/01/17 09:38:51;;;;;;;76.38;46.28;;;;;;;;;;5046997;28;20115;-81
2022/01/17 09:41:17;;;;;;;79.63;45.72;;;;;;;;;;5051992;28;20041;-80
2022/01/17 09:43:43;;;;;;;79.00;45.90;;;;;;;;;;5071759;28;20044;-79
2022/01/17 09:46:10;;;;;;;73.35;43.00;;;;;;;;;;5079186;28;20029;-78
2022/01/17 09:48:38;;;;;;;78.03;45.10;;;;;;;;;;5065411;28;20045;-80
2022/01/17 09:51:15;;;;;;;75.38;44.05;;;;;;;;;;5045861;28;20048;-80
2022/01/17 09:53:41;;;;;;;77.22;44.22;;;;;;;;;;5044740;28;20044;-82
2022/01/17 09:56:07;;;;;;;76.55;44.92;;;;;;;;;;5061702;28;20415;-81
2022/01/17 09:58:35;;;;;;;79.93;43.90;;;;;;;;;;5061580;28;20410;-80
2022/01/17 10:01:03;;;;;;;76.57;42.85;;;;;;;;;;5044576;28;20400;-81
2022/01/17 10:03:29;;;;;;;76.45;43.67;;;;;;;;;;5043782;28;20037;-82
2022/01/17 10:05:55;;;;;;;73.60;43.92;;;;;;;;;;5043752;28;20048;-80
2022/01/17 10:08:22;;;;;;;76.90;44.08;;;;;;;;;;5044526;28;20075;-80
2022/01/17 10:10:59;;;;;;;83.22;47.67;;;;;;;;;;5043584;28;20472;-78
2022/01/17 10:13:26;;;;;;;84.13;47.00;;;;;;;;;;5058358;28;20051;-79
2022/01/17 10:15:55;;;;;;;77.28;46.28;;;;;;;;;;5043910;28;20233;-81
2022/01/17 10:18:24;;;;;;;81.72;48.22;;;;;;;;;;5060808;28;20441;-80
2022/01/17 10:21:02;;;;;;;82.85;47.97;;;;;;;;;;5061485;28;20067;-80
2022/01/17 10:36:44;;;;;;;82.22;48.05;;;;;;;;;;5059370;28;20044;-80
2022/01/17 10:39:10;;;;;;;83.55;50.55;;;;;;;;;;5061566;28;20049;-81
2022/01/17 10:41:36;;;;;;;87.53;51.15;;;;;;;;;;5047064;28;20045;-80
2022/01/17 10:44:02;;;;;;;88.25;50.65;;;;;;;;;;5042458;28;20033;-81
2022/01/17 10:46:28;;;;;;;80.60;49.33;;;;;;;;;;5060666;28;20099;-80
2022/01/17 10:48:56;;;;;;;88.90;51.70;;;;;;;;;;5057685;28;20365;-80
2022/01/17 10:51:32;;;;;;;87.43;50.58;;;;;;;;;;5043693;28;20461;-82
2022/01/17 10:53:58;;;;;;;88.53;52.60;;;;;;;;;;5044294;28;20052;-80
2022/01/17 10:56:25;;;;;;;82.97;52.25;;;;;;;;;;5043586;28;20064;-80
2022/01/17 10:59:00;;;;;;;90.40;51.55;;;;;;;;;;5041338;28;20041;-80
2022/01/17 11:01:26;;;;;;;88.85;53.13;;;;;;;;;;5057306;28;20040;-80
2022/01/17 11:03:57;;;;;;;86.63;52.30;;;;;;;;;;5057531;28;20456;-80
2022/01/17 11:06:23;;;;;;;87.50;50.88;;;;;;;;;;5057048;28;20124;-81
2022/01/17 11:08:51;;;;;;;83.68;51.97;;;;;;;;;;5057241;28;20116;-81
2022/01/17 11:11:21;;;;;;;84.50;50.65;;;;;;;;;;5040808;28;20102;-79
2022/01/17 11:13:49;;;;;;;77.50;49.85;;;;;;;;;;5057505;28;20040;-80
2022/01/17 11:16:17;;;;;;;82.07;50.78;;;;;;;;;;5041026;28;20093;-80
2022/01/17 11:18:45;;;;;;;83.50;48.83;;;;;;;;;;5056651;28;20431;-80
2022/01/17 11:21:14;;;;;;;79.30;47.75;;;;;;;;;;5061177;28;20067;-81
2022/01/17 11:23:43;;;;;;;78.10;47.80;;;;;;;;;;5041366;28;20056;-79
2022/01/17 11:26:09;;;;;;;83.88;50.25;;;;;;;;;;5061223;28;20048;-80
2022/01/17 11:28:35;;;;;;;72.80;48.15;;;;;;;;;;5042198;28;20116;-79
2022/01/17 11:31:02;;;;;;;76.03;47.65;;;;;;;;;;5061103;28;20048;-77
2022/01/17 11:33:29;;;;;;;81.00;45.95;;;;;;;;;;5061709;28;20368;-80
2022/01/17 11:35:55;;;;;;;80.30;48.45;;;;;;;;;;5042888;28;20110;-80
2022/01/17 11:38:29;;;;;;;74.47;47.92;;;;;;;;;;5045481;28;20037;-81
2022/01/17 11:40:57;;;;;;;76.40;46.65;;;;;;;;;;5062858;28;20033;-82
2022/01/17 11:43:35;;;;;;;92.85;50.83;;;;;;;;;;5060989;28;20033;-80
2022/01/17 11:46:21;;;;;;;77.90;46.90;;;;;;;;;;5045462;28;20059;-81
2022/01/17 11:48:59;;;;;;;75.18;44.55;;;;;;;;;;5064880;28;20041;-81
2022/01/17 11:51:35;;;;;;;83.97;49.05;;;;;;;;;;5060406;28;20052;-81
2022/01/17 11:54:12;;;;;;;81.82;47.85;;;;;;;;;;5061776;28;20467;-81
2022/01/17 11:56:48;;;;;;;77.80;48.67;;;;;;;;;;5062237;28;20067;-82
2022/01/17 11:59:23;;;;;;;83.63;49.75;;;;;;;;;;5045357;28;20373;-81
2022/01/17 12:02:08;;;;;;;82.70;49.92;;;;;;;;;;5063688;28;20036;-81
2022/01/17 12:04:34;;;;;;;87.60;50.03;;;;;;;;;;5060260;28;20128;-81
2022/01/17 12:07:00;;;;;;;88.85;49.97;;;;;;;;;;5040272;28;20068;-79
2022/01/17 12:09:26;;;;;;;87.55;50.28;;;;;;;;;;5061986;28;20037;-81
2022/01/17 12:12:08;;;;;;;96.88;53.13;;;;;;;;;;5059964;28;20052;-81
2022/01/17 12:14:34;;;;;;;102.78;55.35;;;;;;;;;;5061888;28;20452;-82
2022/01/17 12:17:18;;;;;;;99.78;56.47;;;;;;;;;;5064683;28;20101;-83
2022/01/17 12:20:09;;;;;;;93.05;52.80;;;;;;;;;;5066736;28;20463;-82
2022/01/17 12:22:44;;;;;;;103.18;55.85;;;;;;;;;;5065526;28;20044;-83
2022/01/17 12:25:24;;;;;;;91.22;54.80;;;;;;;;;;5063330;28;20033;-81
2022/01/17 12:27:50;;;;;;;98.00;54.15;;;;;;;;;;5064562;28;20048;-83
2022/01/17 12:30:17;;;;;;;98.07;55.47;;;;;;;;;;5066598;28;20116;-83
2022/01/17 12:32:48;;;;;;;99.88;51.50;;;;;;;;;;5049494;28;20381;-82
2022/01/17 12:35:17;;;;;;;95.32;54.03;;;;;;;;;;5050262;28;20369;-83
2022/01/17 12:37:47;;;;;;;86.30;47.40;;;;;;;;;;5061530;28;20049;-82
2022/01/17 12:40:18;;;;;;;92.32;50.83;;;;;;;;;;5066676;28;20070;-84
2022/01/17 12:42:57;;;;;;;81.85;46.03;;;;;;;;;;5050299;28;20100;-80
2022/01/17 12:45:28;;;;;;;90.05;51.97;;;;;;;;;;5045028;28;20052;-83
2022/01/17 12:47:54;;;;;;;94.97;49.88;;;;;;;;;;5045173;28;20048;-82
2022/01/17 12:50:20;;;;;;;88.60;49.50;;;;;;;;;;5065478;28;20033;-83
2022/01/17 12:52:46;;;;;;;91.10;51.22;;;;;;;;;;5045772;28;20056;-82
2022/01/17 12:55:12;;;;;;;85.10;49.95;;;;;;;;;;5045790;28;20047;-81
2022/01/17 12:57:40;;;;;;;86.20;50.30;;;;;;;;;;5045654;28;20366;-81
2022/01/17 13:00:06;;;;;;;86.25;47.70;;;;;;;;;;5061254;28;20047;-82
2022/01/17 13:02:32;;;;;;;86.90;48.58;;;;;;;;;;5060710;28;20041;-82
2022/01/17 13:04:58;;;;;;;86.05;45.60;;;;;;;;;;5045642;28;20033;-83
2022/01/17 13:07:25;;;;;;;85.80;47.45;;;;;;;;;;5066729;28;20032;-81
2022/01/17 13:09:53;;;;;;;85.53;45.85;;;;;;;;;;5048834;28;20041;-82
2022/01/17 13:12:20;;;;;;;88.68;48.50;;;;;;;;;;5047132;28;20369;-82
2022/01/17 13:14:46;;;;;;;73.35;42.20;;;;;;;;;;5063744;28;20460;-83
2022/01/17 13:17:12;;;;;;;82.20;46.80;;;;;;;;;;5047810;28;20045;-83
2022/01/17 13:19:38;;;;;;;78.75;45.63;;;;;;;;;;5044862;28;20103;-82
2022/01/17 13:22:04;;;;;;;75.97;42.97;;;;;;;;;;5046504;28;20036;-80
2022/01/17 13:27:00;;;;;;;81.07;44.95;;;;;;;;;;5061929;28;20037;-82
2022/01/17 13:29:27;;;;;;;78.20;44.38;;;;;;;;;;5045332;28;20051;-81
2022/01/17 13:31:53;;;;;;;76.60;46.05;;;;;;;;;;5047651;28;20064;-82
2022/01/17 13:34:22;;;;;;;79.78;47.88;;;;;;;;;;5049332;28;20045;-81
2022/01/17 13:36:55;;;;;;;79.43;46.60;;;;;;;;;;5063250;28;20041;-81
2022/01/17 13:39:22;;;;;;;94.38;47.33;;;;;;;;;;5045895;28;20045;-81
2022/01/17 13:41:50;;;;;;;88.05;47.13;;;;;;;;;;5045300;28;20036;-80
2022/01/17 13:44:16;;;;;;;91.72;48.28;;;;;;;;;;5047027;28;20040;-82
2022/01/17 13:46:58;;;;;;;88.00;49.92;;;;;;;;;;5060999;28;20037;-81
2022/01/17 13:49:25;;;;;;;91.00;49.45;;;;;;;;;;5045973;28;20064;-80
2022/01/17 13:51:51;;;;;;;102.28;52.10;;;;;;;;;;5063152;28;20415;-83
2022/01/17 13:54:26;;;;;;;114.43;52.95;;;;;;;;;;5048203;28;20048;-81
2022/01/17 13:56:52;;;;;;;105.97;54.90;;;;;;;;;;5061455;28;20052;-81
2022/01/17 13:59:19;;;;;;;99.93;56.60;;;;;;;;;;5062004;28;20338;-81
2022/01/17 14:01:45;;;;;;;108.88;57.97;;;;;;;;;;5063759;28;20096;-82
2022/01/17 14:04:22;;;;;;;114.55;58.15;;;;;;;;;;5062677;28;20448;-82
2022/01/17 14:06:48;;;;;;;115.72;53.60;;;;;;;;;;5044656;28;20037;-81
2022/01/17 14:09:14;;;;;;;128.65;57.67;;;;;;;;;;5061061;28;20040;-81
2022/01/17 14:11:44;;;;;;;117.68;54.97;;;;;;;;;;5042834;28;20048;-81
2022/01/17 14:14:11;;;;;;;120.50;55.22;;;;;;;;;;5047039;28;20110;-82
2022/01/17 14:16:39;;;;;;;108.55;57.75;;;;;;;;;;5041314;28;20120;-79
2022/01/17 14:19:06;;;;;;;125.50;59.17;;;;;;;;;;5055833;28;20106;-80
2022/01/17 14:21:36;;;;;;;109.63;56.97;;;;;;;;;;5039551;28;20124;-79
2022/01/17 14:24:19;;;;;;;111.07;55.78;;;;;;;;;;5060420;28;20052;-80
2022/01/17 14:26:55;;;;;;;116.55;55.00;;;;;;;;;;5058760;28;20033;-79
2022/01/17 14:29:22;;;;;;;115.38;53.97;;;;;;;;;;5042979;28;20033;-80
2022/01/17 14:31:48;;;;;;;116.97;55.20;;;;;;;;;;5045458;28;20051;-80
2022/01/17 14:34:16;;;;;;;113.78;51.55;;;;;;;;;;5045273;28;20120;-82
2022/01/17 14:36:42;;;;;;;107.78;47.85;;;;;;;;;;5047780;28;20051;-81
2022/01/17 14:39:09;;;;;;;104.07;47.00;;;;;;;;;;5061052;28;20056;-81
2022/01/17 14:41:37;;;;;;;103.03;46.70;;;;;;;;;;5041309;28;20048;-81